Terminal Aerodrome Forecast
Issued by NWS

Home | Current Version | Previous Version | Text Only | Print | Product List | Glossary On
Versions: 1 2 3 4 5 6 7 8 9 10 11 12 13
325
FTUS45 KABQ 261740
TAFSAF
TAF
KSAF 261740Z 2618/2718 22011KT P6SM OVC200
      TEMPO 2621/2701 22013G23KT
     FM270100 VRB06KT P6SM BKN200
     FM270900 36008KT P6SM SCT200=

USA.gov is the U.S. government's official web portal to all federal, state and local government web resources and services.